createdAt,value
2022-07-30T00:01:22.497Z,53.97
2022-07-30T00:03:48.962Z,56.29
2022-07-30T00:06:17.823Z,57.67
2022-07-30T00:08:44.122Z,58.68
2022-07-30T00:11:11.913Z,59.70
2022-07-30T00:13:38.141Z,60.52
2022-07-30T00:16:04.427Z,60.58
2022-07-30T00:18:30.724Z,63.03
2022-07-30T00:20:57.007Z,61.64
2022-07-30T00:23:23.314Z,61.84
2022-07-30T00:25:49.618Z,61.26
2022-07-30T00:28:15.931Z,64.96
2022-07-30T00:30:42.246Z,64.33
2022-07-30T00:33:08.619Z,64.06
2022-07-30T00:35:34.931Z,64.28
2022-07-30T00:38:01.229Z,65.27
2022-07-30T00:40:27.540Z,66.39
2022-07-30T00:42:53.833Z,67.62
2022-07-30T00:45:20.119Z,69.11
2022-07-30T00:47:46.447Z,68.32
2022-07-30T00:50:12.728Z,68.47
2022-07-30T00:52:39.014Z,69.90
2022-07-30T00:55:05.308Z,69.52
2022-07-30T00:57:31.603Z,70.64
2022-07-30T00:59:58.147Z,71.00
2022-07-30T01:02:24.465Z,69.93
2022-07-30T01:04:50.808Z,71.61
2022-07-30T01:07:19.068Z,70.91
2022-07-30T01:09:48.015Z,71.53
2022-07-30T01:12:14.864Z,71.34
2022-07-30T01:14:41.169Z,71.39
2022-07-30T01:17:07.450Z,71.89
2022-07-30T01:19:48.937Z,72.07
2022-07-30T01:22:15.250Z,71.83
2022-07-30T01:24:41.552Z,72.08
2022-07-30T01:27:07.853Z,72.16
2022-07-30T01:29:34.150Z,72.24
2022-07-30T01:32:00.557Z,71.02
2022-07-30T01:34:26.919Z,71.62
2022-07-30T01:36:53.212Z,70.92
2022-07-30T01:39:19.604Z,70.36
2022-07-30T01:41:45.911Z,71.38
2022-07-30T01:44:12.206Z,71.94
2022-07-30T01:46:38.506Z,71.49
2022-07-30T01:49:04.891Z,72.11
2022-07-30T01:51:37.145Z,73.35
2022-07-30T01:54:04.044Z,74.61
2022-07-30T01:56:30.334Z,75.09
2022-07-30T01:59:01.126Z,76.58
2022-07-30T02:01:27.515Z,75.65
2022-07-30T02:03:53.933Z,76.04
2022-07-30T02:06:21.143Z,75.56
2022-07-30T02:08:47.437Z,75.79
2022-07-30T02:11:13.715Z,75.79
2022-07-30T02:13:40.028Z,76.71
2022-07-30T02:16:06.350Z,76.35
2022-07-30T02:18:32.695Z,75.99
2022-07-30T02:20:58.987Z,75.97
2022-07-30T02:23:25.344Z,75.36
2022-07-30T02:25:51.646Z,76.89
2022-07-30T02:28:17.946Z,75.93
2022-07-30T02:30:44.243Z,75.40
2022-07-30T02:33:12.622Z,76.59
2022-07-30T02:35:38.926Z,76.02
2022-07-30T02:38:05.530Z,74.40
2022-07-30T02:40:31.831Z,74.39
2022-07-30T02:42:58.139Z,74.41
2022-07-30T02:45:24.715Z,74.17
2022-07-30T02:47:51.026Z,75.21
2022-07-30T02:50:17.356Z,74.11
2022-07-30T02:52:43.646Z,75.00
2022-07-30T02:55:09.941Z,73.75
2022-07-30T02:57:36.263Z,74.93
2022-07-30T03:00:09.561Z,76.00
2022-07-30T03:02:36.135Z,75.95
2022-07-30T03:05:04.262Z,75.62
2022-07-30T03:07:30.560Z,75.15
2022-07-30T03:09:57.063Z,73.84
2022-07-30T03:12:23.364Z,75.19
2022-07-30T03:14:49.661Z,75.83
2022-07-30T03:17:15.974Z,77.21
2022-07-30T03:19:42.277Z,77.21
2022-07-30T03:22:08.606Z,77.00
2022-07-30T03:24:35.163Z,76.57
2022-07-30T03:27:03.824Z,75.88
2022-07-30T03:29:30.367Z,75.22
2022-07-30T03:31:56.716Z,75.16
2022-07-30T03:34:23.226Z,74.96
2022-07-30T03:36:50.692Z,76.47
2022-07-30T03:39:17.444Z,76.24
2022-07-30T03:41:43.735Z,75.74
2022-07-30T03:44:10.163Z,74.63
2022-07-30T03:46:36.541Z,76.25
2022-07-30T03:49:02.945Z,75.16
2022-07-30T03:51:32.993Z,75.65
2022-07-30T03:53:59.670Z,75.68
2022-07-30T03:56:26.076Z,77.04
2022-07-30T03:58:52.386Z,76.67
2022-07-30T04:01:18.779Z,76.66
2022-07-30T04:03:45.181Z,75.36
2022-07-30T04:06:11.530Z,75.15
2022-07-30T04:08:37.834Z,73.94
2022-07-30T04:11:04.169Z,74.60
2022-07-30T04:13:30.585Z,74.48
2022-07-30T04:16:38.489Z,76.01
2022-07-30T04:18:43.176Z,76.85
2022-07-30T04:21:15.987Z,76.34
2022-07-30T04:24:04.044Z,75.90
2022-07-30T04:26:29.911Z,77.53
2022-07-30T04:28:56.791Z,77.29
2022-07-30T04:31:23.143Z,76.93
2022-07-30T04:33:49.485Z,77.33
2022-07-30T04:36:16.514Z,75.83
2022-07-30T04:38:42.884Z,77.23
2022-07-30T04:41:09.211Z,77.82
2022-07-30T04:43:35.525Z,78.72
2022-07-30T04:46:01.974Z,78.43
2022-07-30T04:48:29.052Z,78.18
2022-07-30T04:50:55.267Z,77.34
2022-07-30T04:53:21.560Z,78.68
2022-07-30T04:55:47.896Z,78.32
2022-07-30T04:58:14.222Z,77.58
2022-07-30T05:00:41.467Z,77.19
2022-07-30T05:03:08.098Z,77.10
2022-07-30T05:05:34.423Z,77.20
2022-07-30T05:08:00.718Z,77.10
2022-07-30T05:10:27.011Z,76.43
2022-07-30T05:12:53.322Z,75.92
2022-07-30T05:15:19.924Z,76.02
2022-07-30T05:17:46.210Z,74.65
2022-07-30T05:20:12.502Z,74.04
2022-07-30T05:22:38.801Z,75.07
2022-07-30T05:25:16.005Z,74.53
2022-07-30T05:27:42.687Z,75.07
2022-07-30T05:30:08.983Z,74.76
2022-07-30T05:32:35.354Z,74.22
2022-07-30T05:35:02.229Z,74.67
2022-07-30T05:37:28.507Z,74.70
2022-07-30T05:39:57.611Z,74.97
2022-07-30T05:42:29.314Z,74.81
2022-07-30T05:44:55.869Z,74.37
2022-07-30T05:47:22.853Z,74.19
2022-07-30T05:49:49.100Z,74.26
2022-07-30T05:52:15.410Z,73.75
2022-07-30T05:54:41.754Z,73.35
2022-07-30T05:57:08.053Z,73.52
2022-07-30T05:59:34.372Z,74.62
2022-07-30T06:02:01.832Z,74.33
2022-07-30T06:04:28.252Z,74.25
2022-07-30T06:06:54.634Z,73.72
2022-07-30T06:09:32.957Z,74.45
2022-07-30T06:12:03.495Z,74.31
2022-07-30T06:14:29.794Z,74.64
2022-07-30T06:16:56.079Z,75.24
2022-07-30T06:19:22.535Z,74.41
2022-07-30T06:22:05.763Z,75.15
2022-07-30T06:24:33.280Z,74.91
2022-07-30T06:26:59.873Z,73.99
2022-07-30T06:29:26.474Z,73.92
2022-07-30T06:31:52.788Z,74.07
2022-07-30T06:34:19.115Z,73.27
2022-07-30T06:36:45.455Z,73.35
2022-07-30T06:39:11.749Z,71.24
2022-07-30T06:41:38.136Z,71.63
2022-07-30T06:44:04.427Z,71.29
2022-07-30T06:46:30.785Z,70.45
2022-07-30T06:48:57.161Z,70.57
2022-07-30T06:51:23.509Z,70.81
2022-07-30T06:53:49.808Z,70.74
2022-07-30T06:56:16.104Z,69.87
2022-07-30T06:58:42.400Z,69.93
2022-07-30T07:01:11.263Z,69.34
2022-07-30T07:03:40.014Z,69.88
2022-07-30T07:06:06.679Z,69.14
2022-07-30T07:08:32.975Z,68.85
2022-07-30T07:10:59.286Z,67.10
2022-07-30T07:13:25.579Z,67.77
2022-07-30T07:15:51.871Z,67.57
2022-07-30T07:18:18.176Z,66.80
2022-07-30T07:20:46.548Z,66.76
2022-07-30T07:23:12.865Z,66.37
2022-07-30T07:25:40.180Z,66.68
2022-07-30T07:28:11.637Z,66.78
2022-07-30T07:30:39.685Z,66.75
2022-07-30T07:33:06.071Z,68.32
2022-07-30T07:35:32.384Z,67.95
2022-07-30T07:38:14.700Z,68.53
2022-07-30T07:40:40.986Z,69.95
2022-07-30T07:43:07.313Z,70.12
2022-07-30T07:45:34.222Z,70.48
2022-07-30T07:48:00.579Z,71.45
2022-07-30T07:50:26.887Z,72.76
2022-07-30T07:52:53.241Z,72.00
2022-07-30T07:55:22.980Z,71.72
2022-07-30T07:57:50.400Z,72.04
2022-07-30T08:00:17.743Z,72.46
2022-07-30T08:02:44.357Z,72.11
2022-07-30T08:05:12.476Z,71.09
2022-07-30T08:07:38.912Z,70.66
2022-07-30T08:10:05.230Z,71.99
2022-07-30T08:12:31.582Z,72.60
2022-07-30T08:14:57.862Z,72.37
2022-07-30T08:17:24.509Z,72.00
2022-07-30T08:19:50.804Z,71.55
2022-07-30T08:22:17.114Z,72.94
2022-07-30T08:24:43.406Z,73.26
2022-07-30T08:27:09.690Z,73.46
2022-07-30T08:29:35.985Z,73.31
2022-07-30T08:32:02.632Z,72.31
2022-07-30T08:34:29.417Z,71.72
2022-07-30T08:36:55.779Z,73.08
2022-07-30T08:39:22.101Z,73.04
2022-07-30T08:41:48.396Z,73.05
2022-07-30T08:44:14.692Z,72.42
2022-07-30T08:46:41.344Z,71.77
2022-07-30T08:49:14.223Z,73.36
2022-07-30T08:51:40.518Z,72.82
2022-07-30T08:54:06.845Z,73.29
2022-07-30T08:56:33.167Z,73.23
2022-07-30T08:58:59.467Z,72.69
2022-07-30T09:01:25.768Z,71.81
2022-07-30T09:03:52.107Z,71.55
2022-07-30T09:06:18.449Z,71.08
2022-07-30T09:08:44.754Z,71.20
2022-07-30T09:11:11.083Z,70.34
2022-07-30T09:13:41.700Z,70.54
2022-07-30T09:16:08.076Z,69.32
2022-07-30T09:18:34.409Z,68.64
2022-07-30T09:21:00.750Z,68.92
2022-07-30T09:23:27.106Z,68.43
2022-07-30T09:25:54.424Z,68.55
2022-07-30T09:28:20.850Z,67.95
2022-07-30T09:30:47.130Z,69.11
2022-07-30T09:33:13.437Z,70.12
2022-07-30T09:35:39.726Z,69.97
2022-07-30T09:38:06.765Z,69.74
2022-07-30T09:40:33.622Z,69.00
2022-07-30T09:42:59.920Z,69.50
2022-07-30T09:45:26.210Z,69.04
2022-07-30T09:48:01.416Z,70.13
2022-07-30T09:50:30.046Z,69.05
2022-07-30T09:52:57.072Z,71.19
2022-07-30T09:55:23.552Z,71.13
2022-07-30T09:57:51.484Z,71.98
2022-07-30T10:00:23.714Z,72.32
2022-07-30T10:02:51.598Z,72.25
2022-07-30T10:05:19.300Z,71.70
2022-07-30T10:07:46.778Z,71.76
2022-07-30T10:10:14.608Z,72.12
2022-07-30T10:12:43.447Z,71.91
2022-07-30T10:15:13.495Z,71.24
2022-07-30T10:17:40.039Z,72.10
2022-07-30T10:20:08.906Z,71.93
2022-07-30T10:22:35.736Z,71.29
2022-07-30T10:25:02.527Z,71.80
2022-07-30T10:27:32.117Z,71.86
2022-07-30T10:29:58.558Z,71.33
2022-07-30T10:32:31.020Z,70.89
2022-07-30T10:34:57.450Z,71.70
2022-07-30T10:37:24.312Z,69.93
2022-07-30T10:39:52.415Z,69.40
2022-07-30T10:42:19.723Z,68.56
2022-07-30T10:44:46.048Z,68.36
2022-07-30T10:47:13.941Z,68.30
2022-07-30T10:49:40.634Z,67.54
2022-07-30T10:52:08.032Z,66.73
2022-07-30T10:54:39.339Z,66.78
2022-07-30T10:57:06.390Z,66.93
2022-07-30T10:59:32.689Z,66.17
2022-07-30T11:02:03.363Z,64.45
2022-07-30T11:04:29.905Z,64.80
2022-07-30T11:06:56.208Z,63.67
2022-07-30T11:09:22.989Z,62.25
2022-07-30T11:12:01.215Z,63.27
2022-07-30T11:14:32.714Z,63.96
2022-07-30T11:16:59.096Z,63.11
2022-07-30T11:19:56.203Z,62.15
2022-07-30T11:22:12.883Z,61.44
2022-07-30T11:24:39.218Z,62.79
2022-07-30T11:27:05.517Z,62.05
2022-07-30T11:29:35.227Z,61.55
2022-07-30T11:32:17.360Z,60.27
2022-07-30T11:34:43.742Z,60.66
2022-07-30T11:37:18.096Z,59.87
2022-07-30T11:39:48.358Z,60.92
2022-07-30T11:42:15.702Z,61.96
2022-07-30T11:44:42.471Z,61.03
2022-07-30T11:47:08.802Z,59.38
2022-07-30T11:49:35.123Z,59.19
2022-07-30T11:52:01.632Z,58.61
2022-07-30T11:54:28.085Z,59.39
2022-07-30T11:56:54.374Z,58.30
2022-07-30T11:59:20.677Z,59.02
2022-07-30T12:01:46.984Z,58.92
2022-07-30T12:04:13.276Z,59.41
2022-07-30T12:06:39.723Z,59.07
2022-07-30T12:09:06.037Z,59.36
2022-07-30T12:11:32.407Z,59.74
2022-07-30T12:13:59.610Z,59.39
2022-07-30T12:16:25.923Z,58.65
2022-07-30T12:18:52.234Z,58.64
2022-07-30T12:21:18.837Z,57.88
2022-07-30T12:23:45.111Z,56.76
2022-07-30T12:26:11.403Z,55.87
2022-07-30T12:28:37.733Z,54.99
2022-07-30T12:31:04.373Z,54.56
2022-07-30T12:33:30.731Z,53.57
2022-07-30T12:35:57.031Z,54.14
2022-07-30T12:38:23.342Z,55.19
2022-07-30T12:40:49.659Z,55.64
2022-07-30T12:43:16.188Z,55.53
2022-07-30T12:45:52.201Z,55.67
2022-07-30T12:48:20.747Z,56.21
2022-07-30T12:50:48.482Z,57.34
2022-07-30T12:53:14.770Z,57.21
2022-07-30T12:55:41.084Z,58.00
2022-07-30T12:58:08.812Z,57.79
2022-07-30T13:00:36.077Z,57.86
2022-07-30T13:03:02.318Z,56.05
2022-07-30T13:05:28.608Z,56.70
2022-07-30T13:07:54.897Z,56.65
2022-07-30T13:10:21.402Z,56.37
2022-07-30T13:12:47.692Z,57.15
2022-07-30T13:15:14.018Z,57.68
2022-07-30T13:17:40.310Z,57.38
2022-07-30T13:20:06.618Z,57.01
2022-07-30T13:22:32.919Z,56.89
2022-07-30T13:25:00.374Z,56.98
2022-07-30T13:27:26.675Z,57.62
2022-07-30T13:29:52.995Z,58.08
2022-07-30T13:32:19.293Z,57.30
2022-07-30T13:34:49.048Z,57.24
2022-07-30T13:37:15.346Z,56.99
2022-07-30T13:39:41.662Z,57.39
2022-07-30T13:42:07.971Z,58.63
2022-07-30T13:44:34.259Z,58.54
2022-07-30T13:47:02.079Z,57.61
2022-07-30T13:49:28.707Z,57.87
2022-07-30T13:51:56.564Z,57.35
2022-07-30T13:54:22.886Z,54.86
2022-07-30T13:56:49.179Z,53.08
2022-07-30T13:59:16.035Z,53.40
2022-07-30T14:01:42.723Z,53.99
2022-07-30T14:04:09.396Z,57.37
2022-07-30T14:06:35.724Z,57.33
2022-07-30T14:09:02.050Z,57.68
2022-07-30T14:11:28.354Z,58.45
2022-07-30T14:13:54.899Z,58.00
2022-07-30T14:16:43.511Z,58.40
2022-07-30T14:19:07.523Z,58.15
2022-07-30T14:21:34.481Z,58.64
2022-07-30T14:24:00.942Z,57.65
2022-07-30T14:26:30.039Z,57.68
2022-07-30T14:29:02.727Z,58.67
2022-07-30T14:31:29.046Z,57.77
2022-07-30T14:33:55.552Z,56.79
2022-07-30T14:36:22.392Z,56.45
2022-07-30T14:38:48.926Z,55.71
2022-07-30T14:41:15.215Z,54.76
2022-07-30T14:43:41.524Z,52.19
2022-07-30T14:46:07.802Z,48.57
2022-07-30T14:48:34.104Z,46.40
2022-07-30T14:51:16.024Z,45.55
2022-07-30T14:53:47.075Z,46.14
2022-07-30T14:56:13.678Z,46.29
2022-07-30T14:58:40.153Z,46.30
2022-07-30T15:01:15.639Z,45.37
2022-07-30T15:03:42.566Z,45.55
2022-07-30T15:06:09.630Z,45.82
2022-07-30T15:08:36.119Z,45.83
2022-07-30T15:11:04.083Z,46.16
2022-07-30T15:13:32.492Z,47.14
2022-07-30T15:15:58.834Z,46.15
2022-07-30T15:18:25.131Z,45.52
2022-07-30T15:20:51.421Z,45.72
2022-07-30T15:23:17.703Z,45.13
2022-07-30T15:25:43.997Z,44.85
2022-07-30T15:28:10.291Z,44.93
2022-07-30T15:30:36.764Z,45.44
2022-07-30T15:33:03.097Z,45.16
2022-07-30T15:35:29.397Z,44.83
2022-07-30T15:37:55.881Z,44.95
2022-07-30T15:40:22.188Z,45.12
2022-07-30T15:42:48.514Z,44.42
2022-07-30T15:45:17.555Z,44.45
2022-07-30T15:47:44.816Z,43.98
2022-07-30T15:50:11.133Z,44.63
2022-07-30T15:52:37.490Z,46.10
2022-07-30T15:55:04.205Z,46.59
2022-07-30T15:57:30.514Z,45.62
2022-07-30T15:59:56.989Z,46.09
2022-07-30T16:02:23.298Z,46.67
2022-07-30T16:04:49.596Z,46.67
2022-07-30T16:07:19.049Z,46.89
2022-07-30T16:09:45.370Z,46.90
2022-07-30T16:12:11.703Z,47.07
2022-07-30T16:14:37.999Z,47.12
2022-07-30T16:17:04.896Z,46.97
2022-07-30T16:19:31.139Z,47.47
2022-07-30T16:21:57.604Z,47.90
2022-07-30T16:24:23.903Z,48.80
2022-07-30T16:26:50.591Z,48.10
2022-07-30T16:29:17.822Z,47.63
2022-07-30T16:31:44.137Z,46.53
2022-07-30T16:34:10.435Z,46.25
2022-07-30T16:36:36.722Z,46.39
2022-07-30T16:39:03.024Z,46.13
2022-07-30T16:41:29.331Z,45.98
2022-07-30T16:43:55.631Z,47.83
2022-07-30T16:46:21.973Z,47.24
2022-07-30T16:48:50.598Z,47.07
2022-07-30T16:51:17.047Z,47.06
2022-07-30T16:53:43.359Z,46.03
2022-07-30T16:56:09.665Z,46.76
2022-07-30T16:58:35.950Z,47.22
2022-07-30T17:01:02.270Z,47.65
2022-07-30T17:03:28.614Z,46.68
2022-07-30T17:05:54.913Z,46.29
2022-07-30T17:08:24.581Z,47.87
2022-07-30T17:10:51.525Z,47.40
2022-07-30T17:13:17.844Z,47.28
2022-07-30T17:15:44.201Z,48.48
2022-07-30T17:18:13.150Z,49.48
2022-07-30T17:20:39.437Z,48.74
2022-07-30T17:23:05.788Z,49.98
2022-07-30T17:25:32.092Z,48.54
2022-07-30T17:27:58.396Z,50.04
2022-07-30T17:30:24.700Z,49.50
2022-07-30T17:32:50.998Z,49.36
2022-07-30T17:35:17.327Z,49.23
2022-07-30T17:37:43.614Z,51.23
2022-07-30T17:40:29.867Z,49.57
2022-07-30T17:43:02.936Z,49.38
2022-07-30T17:45:29.282Z,49.89
2022-07-30T17:47:55.587Z,50.14
2022-07-30T17:50:21.914Z,50.22
2022-07-30T17:52:48.193Z,50.50
2022-07-30T17:55:14.526Z,50.96
2022-07-30T17:57:40.858Z,50.44
2022-07-30T18:00:07.222Z,49.89
2022-07-30T18:02:33.543Z,51.61
2022-07-30T18:04:59.847Z,51.32
2022-07-30T18:07:26.160Z,52.02
2022-07-30T18:09:52.435Z,57.60
2022-07-30T18:12:18.748Z,61.65
2022-07-30T18:14:45.058Z,62.15
2022-07-30T18:17:14.392Z,64.79
2022-07-30T18:19:41.026Z,64.20
2022-07-30T18:22:07.433Z,65.44
2022-07-30T18:24:33.757Z,66.56
2022-07-30T18:27:06.489Z,67.59
2022-07-30T18:29:32.804Z,67.85
2022-07-30T18:31:59.150Z,68.43
2022-07-30T18:34:25.482Z,69.39
2022-07-30T18:36:53.047Z,69.63
2022-07-30T18:39:19.358Z,70.12
2022-07-30T18:41:45.654Z,68.90
2022-07-30T18:44:11.945Z,69.48
2022-07-30T18:46:38.342Z,70.04
2022-07-30T18:49:26.611Z,71.12
2022-07-30T18:51:50.944Z,71.07
2022-07-30T18:54:18.025Z,72.29
2022-07-30T18:56:44.347Z,71.51
2022-07-30T18:59:10.662Z,73.06
2022-07-30T19:01:39.065Z,72.80
2022-07-30T19:04:05.568Z,71.75
2022-07-30T19:06:31.850Z,71.81
2022-07-30T19:09:00.013Z,71.30
2022-07-30T19:11:26.318Z,71.21
2022-07-30T19:13:52.610Z,71.60
2022-07-30T19:16:20.561Z,72.66
2022-07-30T19:18:46.861Z,70.99
2022-07-30T19:21:14.244Z,72.27
2022-07-30T19:23:40.632Z,71.75
2022-07-30T19:26:06.942Z,71.36
2022-07-30T19:28:34.616Z,70.25
2022-07-30T19:31:00.914Z,70.48
2022-07-30T19:33:27.241Z,70.52
2022-07-30T19:35:53.574Z,71.00
2022-07-30T19:38:22.213Z,70.50
2022-07-30T19:40:50.419Z,70.48
2022-07-30T19:43:16.709Z,70.63
2022-07-30T19:45:47.780Z,71.23
2022-07-30T19:48:14.657Z,70.55
2022-07-30T19:50:41.626Z,70.44
2022-07-30T19:53:08.790Z,70.53
2022-07-30T19:55:37.199Z,70.45
2022-07-30T19:58:03.843Z,70.70
2022-07-30T20:00:30.706Z,70.66
2022-07-30T20:02:57.016Z,71.53
2022-07-30T20:05:24.812Z,71.09
2022-07-30T20:07:51.380Z,71.07
2022-07-30T20:10:19.322Z,70.99
2022-07-30T20:12:49.088Z,71.38
2022-07-30T20:15:16.018Z,71.22
2022-07-30T20:17:42.358Z,71.25
2022-07-30T20:20:09.189Z,71.79
2022-07-30T20:22:35.487Z,71.96
2022-07-30T20:25:02.493Z,72.68
2022-07-30T20:27:35.786Z,73.00
2022-07-30T20:30:03.159Z,72.85
2022-07-30T20:32:29.452Z,72.64
2022-07-30T20:34:56.482Z,73.02
2022-07-30T20:37:23.237Z,73.06
2022-07-30T20:39:49.538Z,73.20
2022-07-30T20:42:16.223Z,73.66
2022-07-30T20:44:43.071Z,73.70
2022-07-30T20:47:09.705Z,73.51
2022-07-30T20:49:36.023Z,73.57
2022-07-30T20:52:02.550Z,73.80
2022-07-30T20:54:29.246Z,74.21
2022-07-30T20:56:56.036Z,73.80
2022-07-30T21:02:08.736Z,73.97
2022-07-30T21:04:41.351Z,74.15
2022-07-30T21:07:12.660Z,74.96
2022-07-30T21:09:49.980Z,74.61
2022-07-30T21:12:19.815Z,74.46
2022-07-30T21:14:59.580Z,74.39
2022-07-30T21:17:26.176Z,74.10
2022-07-30T21:19:54.554Z,74.12
2022-07-30T21:22:21.703Z,74.50
2022-07-30T21:24:48.065Z,74.44
2022-07-30T21:27:14.376Z,74.32
2022-07-30T21:29:41.330Z,74.05
2022-07-30T21:32:07.650Z,74.17
2022-07-30T21:34:40.230Z,73.96
2022-07-30T21:37:08.514Z,73.80
2022-07-30T21:39:40.186Z,74.17
2022-07-30T21:42:06.682Z,73.93
2022-07-30T21:44:32.993Z,74.45
2022-07-30T21:46:59.920Z,74.67
2022-07-30T21:49:27.579Z,74.71
2022-07-30T21:51:57.942Z,75.03
2022-07-30T21:54:28.979Z,76.13
2022-07-30T21:56:56.360Z,76.62
2022-07-30T21:59:24.513Z,75.90
2022-07-30T22:01:55.172Z,76.58
2022-07-30T22:04:21.586Z,75.63
2022-07-30T22:06:47.867Z,75.85
2022-07-30T22:09:19.108Z,75.42
2022-07-30T22:12:00.812Z,76.45
2022-07-30T22:14:27.830Z,76.30
2022-07-30T22:16:55.359Z,78.53
2022-07-30T22:19:21.862Z,77.05
2022-07-30T22:21:48.976Z,76.89
2022-07-30T22:24:29.329Z,77.11
2022-07-30T22:26:57.299Z,77.00
2022-07-30T22:29:27.378Z,76.86
2022-07-30T22:32:01.288Z,76.78
2022-07-30T22:34:27.886Z,76.55
2022-07-30T22:36:54.195Z,76.61
2022-07-30T22:39:23.912Z,78.36
2022-07-30T22:41:58.646Z,77.15
2022-07-30T22:44:27.288Z,76.79
2022-07-30T22:46:56.509Z,76.46
2022-07-30T22:49:23.896Z,76.22
2022-07-30T22:52:10.022Z,76.42
2022-07-30T22:54:51.646Z,76.15
2022-07-30T22:57:23.057Z,76.06
2022-07-30T22:59:57.976Z,76.09
2022-07-30T23:02:27.713Z,76.74
2022-07-30T23:04:56.423Z,76.92
2022-07-30T23:07:22.795Z,77.10
2022-07-30T23:09:52.004Z,77.72
2022-07-30T23:12:20.107Z,77.40
2022-07-30T23:12:33.009Z,73.94
2022-07-30T23:14:46.754Z,76.83
2022-07-30T23:17:13.062Z,76.79
2022-07-30T23:19:39.372Z,76.66
2022-07-30T23:22:06.995Z,76.80
2022-07-30T23:24:33.296Z,76.59
2022-07-30T23:26:59.811Z,77.09
2022-07-30T23:29:26.313Z,77.08
2022-07-30T23:31:52.604Z,77.47
2022-07-30T23:34:18.986Z,77.68
2022-07-30T23:36:45.275Z,77.61
2022-07-30T23:39:11.580Z,77.61
2022-07-30T23:41:38.276Z,77.29
2022-07-30T23:44:04.558Z,77.86
2022-07-30T23:46:30.836Z,77.51
2022-07-30T23:48:57.145Z,77.15
2022-07-30T23:51:23.603Z,77.23
2022-07-30T23:53:49.894Z,77.30
2022-07-30T23:56:17.754Z,77.04
2022-07-30T23:58:45.841Z,77.24
